San Francisco, CA

10:05 PM PDT on September 30, 2014 (GMT -0700)
NEMA | Change Station
CLOSE
Current Station
Personal Weather Station
Location: San Francisco, CA
Elevation: 102 ft
Nearby Weather Stations

Elev 102 ft 37.78 °N, 122.42 °W | Updated 14 minutes ago

Clear
Clear
62.6 °F
Feels Like 62.6 °F
N
-
Wind Variable Wind from North

Today
High -- | Low -- °F
--% Chance of Precip.
Yesterday
High -- | Low -- °F
Precip. -- in
7:04 AM 6:54 PM
Waxing Crescent, 43% visible
Pressure 29.85 in
Visibility 10.0 miles
Clouds Clear
Dew Point 55 °F
Humidity 81%
Rainfall -999.00 in
Snow Depth 0 in , 0 in , 1 in
UV 0 out of 12
Pollen 2.80 out of 12
Ozone Good
PM2.5 Good
Flu Activity Not available.
METAR KSFO 010356Z 29011KT 10SM CLR 19/14 A2985 RMK AO2 SLP108 T01890139

More Conditions Fewer Conditions

Pressure 29.85 in
Visibility 10.0 miles
Clouds Clear
Dew Point 55 °F
Humidity 81%
Rainfall -999.00 in
Snow Depth 0 in , 0 in , 1 in
UV 0 out of 12
Pollen 2.80 out of 12
Ozone Good
PM2.5 Good
Flu Activity Not available.
METAR KSFO 010356Z 29011KT 10SM CLR 19/14 A2985 RMK AO2 SLP108 T01890139

More Conditions Fewer Conditions

10-Day Weather Forecast

Almanac

Astronomy

Sep. 30, 2014 Rise Set
Actual Time 7:04 AM PDT 6:54 PM PDT
Civil Twilight 6:38 AM PDT 7:20 PM PDT
Nautical Twilight 6:07 AM PDT 7:50 PM PDT
Astronomical Twilight 5:37 AM PDT 8:21 PM PDT
Moon 1:12 PM PDT (9/30) 11:34 PM PDT (9/30)
Length of Visible Light 12h 41m
Length of Day
11h 49m
Tomorrow will be 2m 25s shorter.
Waxing Crescent, 43% of the Moon is Illuminated
Oct 1
Waxing Crescent
Oct 1
First Quarter
Oct 8
Full
Oct 15
Last Quarter
Oct 23
New

Yesterday's Extremes

State Highs State Lows

Community

WunderPhotos

Upload Photos

1,757,850 photos uploaded!

Nearby

Air Quality

  Air Quality AQ Index Pollutant
Yesterday Good
PM2.5
Yesterday Good
OZONE
Current Good
PM2.5
Current Good
OZONE
Tuesday Moderate
PM2.5
Wednesday Good
PM2.5
Thursday Moderate
PM2.5
Friday Moderate
PM2.5
Saturday Moderate
PM2.5
Sunday Moderate
PM2.5

Snow Depth

Station Depth Elevation
Blue Lakes 0 in 8000 ft
Independence Camp 0 in 7000 ft
Heavenly Valley 0 in 8850 ft
Summit Meadow 1 in 9122 ft
Squaw Valley 0 in 8200 ft

Earthquake Activity

City Distance Mag. Time & Date
East Foothills, California 40 miles 2.6 3:34 PM PDT
2014-09-30
South Dos Palos, California 117 miles 2.7 3:08 PM PDT
2014-09-30
South Dos Palos, California 117 miles 2.5 9:18 PM PDT
2014-09-29
American Canyon, California 28 miles 2.5 12:17 AM PDT
2014-09-29
Minimum magnitude displayed is 2.5.

Coastal Water Temperatures

Place Temperature
No Stations Reporting

Nearby Weather Stations